Time;durP1;ratioP1;P1;durP2;ratioP2;P2;SDS_P1;SDS_P2;PMS_P1;PMS_P2;Temp;Humidity;BMP_temperature;BMP_pressure;BME280_temperature;BME280_humidity;BME280_pressure;Samples;Min_cycle;Max_cycle;Signal;HPM_P1;HPM_P2
2022/04/06 00:01:19;;;;;;;;;2.00;2.00;;;;;14.40;54.19;100354.16;5092953;27;45690;-83
2022/04/06 00:03:45;;;;;;;;;1.00;1.00;;;;;14.37;54.32;100348.84;5091779;27;45818;-83
2022/04/06 00:06:10;;;;;;;;;2.67;2.67;;;;;14.34;54.29;100348.88;5108911;27;46189;-83
2022/04/06 00:08:42;;;;;;;;;2.00;2.00;;;;;14.29;54.00;100346.22;5092578;27;45440;-83
2022/04/06 00:11:08;;;;;;;;;3.00;3.00;;;;;14.28;53.80;100349.81;5111062;27;45515;-83
2022/04/06 00:13:34;;;;;;;;;1.67;1.67;;;;;14.35;53.80;100345.31;5109962;27;45586;-83
2022/04/06 00:16:01;;;;;;;;;2.00;2.00;;;;;14.22;54.04;100347.19;5091252;27;46744;-83
2022/04/06 00:18:26;;;;;;;;;1.00;1.00;;;;;14.25;54.05;100354.31;5090103;27;45508;-83
2022/04/06 00:20:51;;;;;;;;;1.00;1.00;;;;;14.27;53.66;100333.78;5089463;27;45453;-83
2022/04/06 00:23:17;;;;;;;;;4.00;3.00;;;;;14.26;53.71;100340.91;5088881;27;45747;-82
2022/04/06 00:25:44;;;;;;;;;2.00;2.00;;;;;14.38;53.34;100337.25;5085883;27;47104;-82
2022/04/06 00:28:09;;;;;;;;;2.00;2.00;;;;;14.22;53.44;100336.50;5087747;27;45455;-82
2022/04/06 00:30:35;;;;;;;;;3.00;2.00;;;;;14.19;53.23;100333.81;5107491;27;45615;-82
2022/04/06 00:33:00;;;;;;;;;3.00;2.00;;;;;14.10;53.67;100325.84;5098710;27;45496;-83
2022/04/06 00:35:28;;;;;;;;;2.00;2.00;;;;;14.10;53.65;100332.13;5085753;28;45441;-82
2022/04/06 00:38:02;;;;;;;;;1.00;1.00;;;;;14.05;53.95;100328.56;5087605;28;45748;-82
2022/04/06 00:40:28;;;;;;;;;1.00;1.00;;;;;13.94;53.94;100325.09;5075075;27;45361;-82
2022/04/06 00:42:54;;;;;;;;;2.00;2.00;;;;;13.84;54.53;100320.72;5090073;27;45475;-82
2022/04/06 00:45:23;;;;;;;;;1.00;1.00;;;;;13.82;54.75;100311.81;5088768;27;46829;-82
2022/04/06 00:47:50;;;;;;;;;1.67;1.00;;;;;13.76;55.08;100324.31;5089047;27;45950;-83
2022/04/06 00:50:15;;;;;;;;;2.67;2.00;;;;;13.67;54.97;100321.66;5107855;27;45491;-83
2022/04/06 00:52:43;;;;;;;;;1.33;1.33;;;;;13.61;55.26;100308.34;5089703;27;45466;-83
2022/04/06 00:55:09;;;;;;;;;1.00;1.00;;;;;13.56;55.38;100313.72;5107173;27;45528;-83
2022/04/06 01:00:56;;;;;;;;;1.00;1.00;;;;;13.46;56.02;100301.31;5105108;27;45598;-83
2022/04/06 01:03:23;;;;;;;;;1.33;1.33;;;;;13.49;56.12;100303.06;5104584;27;45529;-82
2022/04/06 01:05:50;;;;;;;;;1.00;1.00;;;;;13.36;56.15;100297.78;5084632;27;47203;-82
2022/04/06 01:08:15;;;;;;;;;3.00;3.00;;;;;13.34;55.95;100296.03;5105029;27;45442;-82
2022/04/06 01:10:41;;;;;;;;;2.00;2.00;;;;;13.27;56.41;100287.13;5105400;27;45782;-82
2022/04/06 01:13:07;;;;;;;;;3.00;3.00;;;;;13.25;56.61;100294.25;5086015;27;45395;-81
2022/04/06 01:15:32;;;;;;;;;2.00;1.33;;;;;13.13;56.78;100283.63;5085802;27;47828;-83
2022/04/06 01:17:58;;;;;;;;;2.00;2.00;;;;;13.12;56.63;100282.72;5106073;27;45405;-83
2022/04/06 01:20:23;;;;;;;;;4.33;3.00;;;;;13.14;56.73;100286.25;5105711;27;45418;-82
2022/04/06 01:22:50;;;;;;;;;1.00;1.00;;;;;13.19;57.11;100272.91;5086831;27;44883;-82
2022/04/06 01:25:15;;;;;;;;;2.00;1.00;;;;;13.07;57.32;100275.59;5105415;27;45600;-82
2022/04/06 01:27:41;;;;;;;;;1.00;1.00;;;;;13.01;57.41;100271.22;5105654;27;45977;-82
2022/04/06 01:30:08;;;;;;;;;2.00;1.00;;;;;13.01;57.26;100274.75;5087708;27;45897;-82
2022/04/06 01:32:35;;;;;;;;;1.67;1.00;;;;;12.88;57.41;100259.66;5104060;27;45446;-82
2022/04/06 01:35:02;;;;;;;;;1.00;1.00;;;;;12.88;57.18;100267.66;5103429;27;45441;-83
2022/04/06 01:37:28;;;;;;;;;1.33;0.67;;;;;12.84;57.37;100275.69;5084853;27;45427;-82
2022/04/06 01:39:53;;;;;;;;;2.00;2.00;;;;;12.80;57.33;100274.81;5085494;27;45534;-82
2022/04/06 01:42:21;;;;;;;;;0.33;0.33;;;;;12.80;57.44;100258.78;5086247;27;45628;-82
2022/04/06 01:44:47;;;;;;;;;2.00;2.00;;;;;12.75;57.33;100255.28;5104856;27;45391;-82
2022/04/06 01:47:15;;;;;;;;;1.67;1.00;;;;;12.79;57.64;100263.25;5087351;27;45429;-82
2022/04/06 01:52:25;;;;;;;;;2.33;1.00;;;;;12.61;57.77;100261.50;5105946;27;45411;-82
2022/04/06 01:54:56;;;;;;;;;2.67;1.00;;;;;12.69;58.08;100257.94;5087262;27;46564;-82
2022/04/06 01:57:23;;;;;;;;;1.67;1.67;;;;;12.60;58.05;100267.75;5088394;27;45798;-82
2022/04/06 01:59:50;;;;;;;;;1.67;1.00;;;;;12.55;58.01;100264.19;5106445;27;45510;-82
2022/04/06 02:02:18;;;;;;;;;1.00;1.00;;;;;12.60;57.86;100259.75;5086127;27;45515;-82
2022/04/06 02:04:45;;;;;;;;;3.33;1.00;;;;;12.60;58.00;100259.75;5085891;27;48171;-83
2022/04/06 02:07:11;;;;;;;;;0.00;0.00;;;;;12.47;57.98;100255.31;5081953;28;45457;-83
2022/04/06 02:09:38;;;;;;;;;2.33;2.33;;;;;12.45;58.05;100251.75;5082225;28;45784;-84
2022/04/06 02:12:06;;;;;;;;;0.67;0.67;;;;;12.54;58.35;100249.09;5084263;27;45461;-83
2022/04/06 02:14:31;;;;;;;;;1.00;1.00;;;;;12.52;58.23;100263.31;5081829;28;45787;-83
2022/04/06 02:17:53;;;;;;;;;1.33;1.33;;;;;12.77;57.72;100253.47;5083590;28;45463;-83
2022/04/06 02:20:18;;;;;;;;;0.67;0.67;;;;;12.58;57.81;100236.63;5087080;28;45541;-83
2022/04/06 02:22:44;;;;;;;;;0.33;0.33;;;;;12.67;57.99;100235.72;5086235;28;45422;-83
2022/04/06 02:25:12;;;;;;;;;1.00;1.00;;;;;12.86;57.73;100241.88;5085398;28;47024;-82
2022/04/06 02:28:05;;;;;;;;;0.67;0.67;;;;;13.02;57.13;100239.13;5086549;28;45436;-82
2022/04/06 02:30:30;;;;;;;;;0.00;0.00;;;;;12.92;57.09;100240.06;5067027;28;45590;-82
2022/04/06 02:32:56;;;;;;;;;1.00;0.00;;;;;12.97;56.87;100240.97;5088881;28;45416;-83
2022/04/06 02:35:21;;;;;;;;;1.00;1.00;;;;;12.99;56.85;100239.16;5087614;28;47167;-82
2022/04/06 02:37:47;;;;;;;;;2.67;0.00;;;;;12.99;56.69;100239.16;5086246;28;45503;-83
2022/04/06 02:40:14;;;;;;;;;0.33;0.00;;;;;13.19;56.46;100238.22;5088761;28;45648;-82
2022/04/06 02:42:41;;;;;;;;;0.00;0.00;;;;;13.09;56.45;100231.09;5088970;28;45434;-83
2022/04/06 02:45:06;;;;;;;;;0.00;0.00;;;;;13.09;56.57;100239.13;5087132;28;45535;-83
2022/04/06 02:47:32;;;;;;;;;0.00;0.00;;;;;13.15;56.46;100231.09;5087194;27;45533;-83
2022/04/06 02:49:57;;;;;;;;;1.33;1.33;;;;;13.16;56.44;100232.88;5086275;28;45346;-83
2022/04/06 02:52:24;;;;;;;;;1.00;1.00;;;;;13.30;56.11;100230.16;5085423;28;45487;-83
2022/04/06 02:54:49;;;;;;;;;2.00;2.00;;;;;13.18;56.31;100225.72;5086057;28;45533;-83
2022/04/06 02:57:14;;;;;;;;;1.00;0.67;;;;;13.25;56.27;100224.81;5085338;28;45895;-83
2022/04/06 02:59:40;;;;;;;;;0.00;0.00;;;;;13.25;55.84;100219.47;5085061;28;45483;-82
2022/04/06 03:02:05;;;;;;;;;1.67;1.00;;;;;13.24;56.22;100209.69;5088576;28;45531;-82
2022/04/06 03:04:31;;;;;;;;;0.00;0.00;;;;;13.30;55.88;100216.81;5087702;28;46878;-82
2022/04/06 03:06:56;;;;;;;;;1.00;0.00;;;;;13.33;55.99;100214.09;5099754;27;45853;-84
2022/04/06 03:09:22;;;;;;;;;1.00;0.00;;;;;13.26;56.01;100205.22;5110119;27;45381;-84
2022/04/06 03:11:47;;;;;;;;;1.00;0.00;;;;;13.27;55.95;100212.34;5111860;27;45353;-83
2022/04/06 03:14:13;;;;;;;;;0.00;0.00;;;;;13.26;56.03;100201.66;5091051;27;46992;-84
2022/04/06 03:16:38;;;;;;;;;1.00;1.00;;;;;13.28;55.95;100206.09;5109289;27;45415;-84
2022/04/06 03:19:04;;;;;;;;;1.00;1.00;;;;;13.29;55.85;100188.28;5073977;27;45844;-84
2022/04/06 03:21:29;;;;;;;;;0.00;0.00;;;;;13.32;55.98;100194.53;5091442;27;44887;-84
2022/04/06 03:23:55;;;;;;;;;0.00;0.00;;;;;13.33;55.80;100182.97;5090997;27;47306;-84
2022/04/06 03:26:20;;;;;;;;;0.00;0.00;;;;;13.34;55.49;100181.19;5091544;27;45838;-83
2022/04/06 03:28:45;;;;;;;;;0.00;0.00;;;;;13.29;55.71;100175.88;5109361;27;45460;-84
2022/04/06 03:31:11;;;;;;;;;0.00;0.00;;;;;13.30;55.88;100174.97;5090296;27;45729;-83
2022/04/06 03:33:36;;;;;;;;;0.00;0.00;;;;;13.32;55.70;100173.16;5089364;27;47055;-83
2022/04/06 03:36:02;;;;;;;;;0.67;0.67;;;;;13.36;55.53;100180.25;5091306;27;45710;-83
2022/04/06 03:38:28;;;;;;;;;0.00;0.00;;;;;13.30;55.46;100180.31;5109102;27;45446;-83
2022/04/06 03:40:53;;;;;;;;;0.00;0.00;;;;;13.28;55.90;100174.06;5091378;27;45453;-83
2022/04/06 03:43:19;;;;;;;;;0.67;0.33;;;;;13.26;56.04;100175.84;5091382;27;47216;-83
2022/04/06 03:45:44;;;;;;;;;0.00;0.00;;;;;13.27;55.78;100172.28;5108996;27;45431;-83
2022/04/06 03:48:10;;;;;;;;;1.00;0.00;;;;;13.37;55.74;100171.38;5089469;27;45947;-83
2022/04/06 03:50:36;;;;;;;;;0.33;0.33;;;;;13.24;55.74;100161.63;5110472;27;45571;-83
2022/04/06 03:53:02;;;;;;;;;0.00;0.00;;;;;13.19;55.42;100166.13;5109114;27;45193;-83
2022/04/06 03:55:27;;;;;;;;;0.00;0.00;;;;;13.18;55.77;100170.53;5089328;27;45386;-83
2022/04/06 03:57:52;;;;;;;;;0.00;0.00;;;;;13.20;55.95;100173.22;5108568;27;45396;-83
2022/04/06 04:00:21;;;;;;;;;1.00;1.00;;;;;13.32;55.86;100164.28;5090205;27;45417;-83
2022/04/06 04:02:46;;;;;;;;;1.00;0.00;;;;;13.17;55.83;100165.25;5089971;27;46915;-83
2022/04/06 04:05:12;;;;;;;;;1.33;0.00;;;;;13.20;56.01;100170.53;5092314;27;45459;-83
2022/04/06 04:07:38;;;;;;;;;0.00;0.00;;;;;13.20;55.98;100173.22;5089220;28;45487;-83
2022/04/06 04:10:09;;;;;;;;;0.00;0.00;;;;;13.32;56.08;100170.50;5088883;28;45425;-83
2022/04/06 04:12:35;;;;;;;;;0.00;0.00;;;;;13.23;55.97;100167.88;5088744;28;48073;-83
2022/04/06 04:15:01;;;;;;;;;0.00;0.00;;;;;13.23;55.83;100162.53;5089218;27;45636;-82
2022/04/06 04:17:26;;;;;;;;;1.00;1.00;;;;;13.17;55.80;100151.88;5084113;28;44853;-83
2022/04/06 04:19:52;;;;;;;;;0.00;0.00;;;;;13.17;55.96;100158.09;5086924;28;45624;-82
2022/04/06 04:22:17;;;;;;;;;1.00;1.00;;;;;13.18;55.96;100158.97;5084789;28;46992;-82
2022/04/06 04:24:44;;;;;;;;;1.00;1.00;;;;;13.30;55.84;100150.06;5084144;28;45566;-83
2022/04/06 04:27:09;;;;;;;;;1.00;1.00;;;;;13.27;56.02;100156.28;5086379;28;45846;-83
2022/04/06 04:29:42;;;;;;;;;0.33;0.33;;;;;13.47;55.75;100156.16;5086475;27;45403;-83
2022/04/06 04:32:10;;;;;;;;;0.00;0.00;;;;;13.30;56.08;100155.38;5084520;28;47234;-83
2022/04/06 04:34:36;;;;;;;;;0.00;0.00;;;;;13.23;56.12;100130.47;5074875;27;44897;-83
2022/04/06 04:37:01;;;;;;;;;1.00;0.00;;;;;13.27;55.51;100142.00;5064652;28;45453;-83
2022/04/06 04:39:27;;;;;;;;;1.33;0.00;;;;;13.33;55.66;100134.91;5064599;28;45461;-83
2022/04/06 04:41:52;;;;;;;;;1.00;1.00;;;;;13.33;55.44;100134.91;5063516;28;47134;-83
2022/04/06 04:44:17;;;;;;;;;1.67;0.00;;;;;13.37;55.42;100139.31;5063512;28;44871;-83
2022/04/06 04:46:43;;;;;;;;;0.00;0.00;;;;;13.36;55.20;100125.97;5063712;28;45284;-83
2022/04/06 04:49:10;;;;;;;;;1.33;1.33;;;;;13.45;55.15;100115.19;5077230;28;45397;-83
2022/04/06 04:51:35;;;;;;;;;1.00;1.00;;;;;13.27;54.99;100100.19;5085379;28;46718;-83
2022/04/06 04:54:01;;;;;;;;;0.00;0.00;;;;;13.46;54.76;100124.13;5085799;28;45456;-83
2022/04/06 04:56:28;;;;;;;;;1.00;1.00;;;;;13.48;54.76;100106.28;5086263;28;45329;-83
2022/04/06 04:58:54;;;;;;;;;1.00;1.00;;;;;13.51;54.71;100112.50;5087761;27;45869;-83
2022/04/06 05:01:20;;;;;;;;;1.00;1.00;;;;;13.53;54.75;100112.47;5084183;28;46820;-83
2022/04/06 05:03:47;;;;;;;;;2.67;1.00;;;;;13.54;54.83;100122.28;5084835;28;45397;-83
2022/04/06 05:06:12;;;;;;;;;0.00;0.00;;;;;13.52;54.77;100116.06;5087601;27;44827;-83
2022/04/06 05:08:38;;;;;;;;;0.00;0.00;;;;;13.53;54.58;100117.81;5084731;28;45345;-83
2022/04/06 05:11:03;;;;;;;;;2.00;1.67;;;;;13.56;54.75;100117.81;5086233;28;45506;-83
2022/04/06 05:13:28;;;;;;;;;2.00;1.00;;;;;13.51;54.88;100119.63;5086907;27;45388;-83
2022/04/06 05:15:54;;;;;;;;;0.33;0.33;;;;;13.46;55.06;100125.00;5083916;28;45507;-82
2022/04/06 05:18:19;;;;;;;;;1.00;1.00;;;;;13.52;55.13;100124.94;5085212;28;45305;-83
2022/04/06 05:20:45;;;;;;;;;0.00;0.00;;;;;13.51;55.06;100114.28;5084485;27;45388;-83
2022/04/06 05:23:10;;;;;;;;;1.00;1.00;;;;;13.48;55.15;100098.28;5084102;28;45365;-83
2022/04/06 05:25:37;;;;;;;;;2.33;2.33;;;;;13.68;55.03;100123.03;5084302;28;45582;-83
2022/04/06 05:28:03;;;;;;;;;5.00;4.33;;;;;13.52;55.34;100122.28;5084761;28;45495;-83
2022/04/06 05:30:30;;;;;;;;;1.67;0.00;;;;;13.48;55.21;100119.66;5084509;28;47093;-83
2022/04/06 05:32:56;;;;;;;;;2.67;2.67;;;;;13.47;55.35;100112.53;5085482;28;45474;-82
2022/04/06 05:35:25;;;;;;;;;3.00;2.00;;;;;13.55;55.41;100118.69;5086680;27;45470;-82
2022/04/06 05:37:51;;;;;;;;;0.00;0.00;;;;;13.49;55.58;100122.31;5088376;28;45547;-82
2022/04/06 05:40:18;;;;;;;;;1.67;1.67;;;;;13.52;55.87;100126.75;5086498;28;47089;-83
2022/04/06 05:42:44;;;;;;;;;2.67;2.33;;;;;13.39;55.82;100118.81;5088272;27;44955;-82
2022/04/06 05:45:10;;;;;;;;;3.67;1.33;;;;;13.42;56.08;100115.25;5090110;28;45552;-86
2022/04/06 05:47:37;;;;;;;;;1.00;1.00;;;;;13.36;56.00;100117.94;5090551;28;45574;-86
2022/04/06 05:50:05;;;;;;;;;2.00;2.00;;;;;13.36;56.45;100121.50;5089582;28;47933;-86
2022/04/06 05:52:31;;;;;;;;;2.00;2.00;;;;;13.07;56.51;100088.72;5089652;28;45491;-85
2022/04/06 05:54:57;;;;;;;;;1.67;1.67;;;;;13.02;56.72;100083.44;5091330;27;45411;-85
2022/04/06 05:57:22;;;;;;;;;4.00;2.67;;;;;13.04;57.18;100086.09;5090100;28;45513;-85
2022/04/06 05:59:48;;;;;;;;;2.00;2.00;;;;;13.22;56.88;100120.69;5090586;28;46776;-86
2022/04/06 06:02:14;;;;;;;;;3.00;3.00;;;;;13.13;56.93;100107.41;5090218;28;45434;-86
2022/04/06 06:04:40;;;;;;;;;2.33;2.33;;;;;13.24;57.03;100113.53;5088556;28;45497;-86
2022/04/06 06:07:06;;;;;;;;;2.00;2.00;;;;;13.24;57.39;100120.69;5094692;27;45438;-86
2022/04/06 06:09:42;;;;;;;;;2.33;2.33;;;;;13.21;57.26;100119.81;5091593;27;47102;-86
2022/04/06 06:12:08;;;;;;;;;2.00;2.00;;;;;13.20;57.16;100114.47;5109946;27;45354;-86
2022/04/06 06:14:33;;;;;;;;;2.33;2.33;;;;;13.28;57.18;100119.75;5109294;27;45356;-85
2022/04/06 06:16:59;;;;;;;;;3.00;3.00;;;;;13.29;56.99;100102.81;5091437;27;44861;-86
2022/04/06 06:19:26;;;;;;;;;5.33;3.00;;;;;13.42;57.17;100117.03;5090260;27;46721;-86
2022/04/06 06:21:51;;;;;;;;;3.00;3.00;;;;;13.39;57.00;100117.91;5090288;27;45545;-86
2022/04/06 06:24:18;;;;;;;;;1.33;1.33;;;;;13.40;56.84;100104.56;5108975;27;45534;-86
2022/04/06 06:26:44;;;;;;;;;4.33;3.00;;;;;13.50;56.77;100108.06;5089633;27;45558;-86
2022/04/06 06:29:11;;;;;;;;;3.00;3.00;;;;;13.51;56.76;100107.16;5088898;27;48241;-86
2022/04/06 06:31:37;;;;;;;;;2.67;2.67;;;;;13.59;56.47;100104.41;5093935;27;45464;-86
2022/04/06 06:34:03;;;;;;;;;3.33;2.00;;;;;13.58;56.43;100110.66;5071713;28;45369;-86
2022/04/06 06:36:29;;;;;;;;;3.67;2.33;;;;;13.51;56.44;100087.56;5071271;28;45358;-86
2022/04/06 06:38:55;;;;;;;;;1.33;1.00;;;;;13.49;56.30;100079.56;5053425;28;47220;-84
2022/04/06 06:41:21;;;;;;;;;2.67;2.67;;;;;13.78;56.00;100108.69;5088339;28;45693;-85
2022/04/06 06:43:48;;;;;;;;;3.00;3.00;;;;;13.83;55.34;100107.75;5088287;28;45754;-83
2022/04/06 06:46:18;;;;;;;;;2.33;2.33;;;;;13.97;55.74;100108.50;5088774;28;45749;-82
2022/04/06 06:48:45;;;;;;;;;2.00;2.00;;;;;13.96;55.74;100104.97;5086407;27;47986;-83
2022/04/06 06:51:11;;;;;;;;;2.00;2.00;;;;;13.87;55.46;100085.44;5089737;27;45348;-83
2022/04/06 06:53:37;;;;;;;;;1.33;1.33;;;;;13.87;55.16;100083.66;5095085;27;44868;-83
2022/04/06 06:56:03;;;;;;;;;3.67;3.67;;;;;14.06;55.44;100095.06;5108787;27;45617;-83
2022/04/06 06:58:28;;;;;;;;;2.67;2.00;;;;;14.04;55.13;100094.19;5089926;27;47307;-83
2022/04/06 07:00:55;;;;;;;;;2.00;2.00;;;;;14.21;55.15;100092.19;5089699;27;45846;-83
2022/04/06 07:03:21;;;;;;;;;3.00;3.00;;;;;14.23;55.18;100099.34;5109176;27;45788;-82
2022/04/06 07:05:48;;;;;;;;;4.00;4.00;;;;;14.30;54.63;100098.34;5108507;27;45865;-82
2022/04/06 07:08:14;;;;;;;;;2.00;1.67;;;;;14.33;54.74;100092.97;5086175;28;46778;-82
2022/04/06 07:10:44;;;;;;;;;2.00;2.00;;;;;14.46;54.46;100086.59;5083595;28;45390;-83
2022/04/06 07:13:29;;;;;;;;;1.00;1.00;;;;;14.57;54.16;100084.69;5089194;28;44880;-83
2022/04/06 07:15:57;;;;;;;;;2.33;2.33;;;;;14.41;54.54;100075.91;5090673;28;45420;-83
2022/04/06 07:18:23;;;;;;;;;2.67;2.67;;;;;14.48;54.53;100084.78;5091053;28;45429;-84
2022/04/06 07:20:52;;;;;;;;;2.00;2.00;;;;;14.54;53.90;100081.13;5106139;27;45565;-83
2022/04/06 07:23:17;;;;;;;;;3.67;3.67;;;;;14.45;54.31;100087.47;5074571;28;44817;-84
2022/04/06 07:25:46;;;;;;;;;2.33;2.00;;;;;14.45;54.27;100084.81;5070840;28;45394;-84
2022/04/06 07:28:11;;;;;;;;;1.67;1.67;;;;;14.41;54.35;100083.06;5077960;28;47285;-83
2022/04/06 07:30:40;;;;;;;;;2.00;2.00;;;;;14.63;54.11;100082.84;5095950;28;44763;-83
2022/04/06 07:33:17;;;;;;;;;3.00;3.00;;;;;14.46;53.65;100057.16;5099863;28;45459;-83
2022/04/06 07:42:55;;;;;;;;;2.00;2.00;;;;;14.82;53.30;100081.66;5004997;28;45271;-83
2022/04/06 07:45:24;;;;;;;;;2.00;2.00;;;;;14.83;53.28;100080.78;5010745;28;44883;-84
2022/04/06 07:47:54;;;;;;;;;1.00;1.00;;;;;14.80;53.22;100072.78;5008911;28;44861;-84
2022/04/06 07:50:25;;;;;;;;;0.33;0.33;;;;;14.72;53.31;100039.88;4953421;28;47408;-83
2022/04/06 07:52:50;;;;;;;;;2.00;2.00;;;;;14.84;53.58;100069.16;4970600;28;45392;-83
2022/04/06 07:55:30;;;;;;;;;5.00;2.00;;;;;15.02;52.92;100064.44;4971990;28;45434;-83
2022/04/06 07:57:56;;;;;;;;;3.00;2.00;;;;;15.02;53.23;100072.47;4988177;28;45975;-83
2022/04/06 08:00:33;;;;;;;;;2.00;2.00;;;;;15.13;52.74;100051.78;4987694;28;46878;-83
2022/04/06 08:03:01;;;;;;;;;1.00;1.00;;;;;15.25;52.62;100067.66;4985895;28;46112;-83
2022/04/06 08:05:27;;;;;;;;;2.00;2.00;;;;;14.84;52.39;100018.28;5047307;28;45598;-83
2022/04/06 08:07:58;;;;;;;;;1.00;1.00;;;;;15.03;52.64;100018.91;5042282;28;45306;-82
2022/04/06 08:10:30;;;;;;;;;3.00;2.00;;;;;15.30;52.44;100030.06;5091076;28;46971;-83
2022/04/06 08:12:56;;;;;;;;;1.33;1.33;;;;;15.18;51.82;100020.44;5083562;28;45417;-84
2022/04/06 08:18:55;;;;;;;;;2.00;2.00;;;;;15.51;51.10;100013.63;5073867;28;45356;-83
2022/04/06 08:21:20;;;;;;;;;1.00;1.00;;;;;15.54;51.78;100047.53;5087376;28;45542;-84
2022/04/06 08:23:46;;;;;;;;;0.33;0.33;;;;;15.37;51.57;100019.22;5092920;28;45505;-83
2022/04/06 08:26:22;;;;;;;;;2.00;2.00;;;;;15.54;51.26;100013.56;5075932;28;45475;-83
2022/04/06 08:28:54;;;;;;;;;0.00;0.00;;;;;15.42;51.32;99988.78;5080276;28;45527;-84
2022/04/06 08:31:33;;;;;;;;;3.00;3.00;;;;;15.87;51.32;100034.44;5051104;28;46740;-83
2022/04/06 08:33:59;;;;;;;;;1.67;1.33;;;;;15.79;51.07;100027.44;5067113;28;45394;-84
2022/04/06 08:36:25;;;;;;;;;4.00;4.00;;;;;15.88;50.96;100036.22;5072409;28;45403;-82
2022/04/06 08:39:03;;;;;;;;;;;;;;;;;;;;;
2022/04/06 08:41:38;;;;;;;;;3.00;1.67;;;;;16.08;50.45;100004.53;5080408;28;74604;-83
2022/04/06 08:44:11;;;;;;;;;1.00;1.00;;;;;16.33;50.03;100036.22;5067445;28;44839;-84
2022/04/06 08:46:40;;;;;;;;;1.00;1.00;;;;;16.28;50.01;100033.66;5083962;28;45549;-83
2022/04/06 08:49:06;;;;;;;;;2.00;2.00;;;;;15.99;49.91;99996.66;5067474;28;45856;-84
2022/04/06 08:52:03;;;;;;;;;3.33;3.33;;;;;16.39;49.35;100031.59;5069319;28;45644;-85
2022/04/06 08:54:30;;;;;;;;;1.67;1.67;;;;;16.27;49.72;100022.94;5073001;28;45648;-82
2022/04/06 08:56:55;;;;;;;;;2.67;2.33;;;;;16.34;49.58;100019.19;5084763;28;45466;-83
2022/04/06 08:59:22;;;;;;;;;1.00;1.00;;;;;16.36;49.08;99995.88;5084814;28;45349;-83
2022/04/06 09:01:50;;;;;;;;;2.67;1.67;;;;;16.48;49.21;100017.13;5069184;28;46357;-83
2022/04/06 09:04:51;;;;;;;;;3.00;3.00;;;;;16.37;48.73;99993.19;5066818;28;45556;-83
2022/04/06 09:07:32;;;;;;;;;3.00;1.00;;;;;16.62;48.97;100007.84;5056378;28;45484;-84
2022/04/06 09:10:01;;;;;;;;;1.00;1.00;;;;;16.65;48.79;100013.19;5092185;28;45497;-83
2022/04/06 09:12:28;;;;;;;;;3.00;2.00;;;;;16.74;48.42;100012.94;5092785;28;45432;-84
2022/04/06 09:15:16;;;;;;;;;1.00;1.00;;;;;16.97;47.92;100007.09;5093809;28;45668;-84
2022/04/06 09:17:53;;;;;;;;;3.00;3.00;;;;;17.08;48.00;100021.13;5093188;28;45479;-84
2022/04/06 09:20:24;;;;;;;;;5.00;3.67;;;;;17.10;48.12;100013.03;5096940;27;45480;-84
2022/04/06 09:23:08;;;;;;;;;8.00;8.00;;;;;17.15;47.88;100003.06;5093481;27;47103;-85
2022/04/06 09:29:13;;;;;;;;;2.67;2.67;;;;;17.25;46.90;99983.09;5088024;27;45597;-84
2022/04/06 09:31:41;;;;;;;;;5.00;3.00;;;;;17.31;46.56;100004.44;5095637;27;45054;-84
2022/04/06 09:34:11;;;;;;;;;4.00;2.00;;;;;17.20;46.50;99979.63;5076402;27;48210;-83
2022/04/06 09:37:00;;;;;;;;;2.00;2.00;;;;;17.33;45.99;100010.66;5092130;27;45480;-84
2022/04/06 09:39:48;;;;;;;;;2.67;2.00;;;;;17.39;45.81;100010.50;5072003;28;45364;-83
2022/04/06 09:42:27;;;;;;;;;7.00;6.00;;;;;17.06;46.91;99961.19;5092183;28;45325;-84
2022/04/06 09:51:04;;;;;;;;;3.00;3.00;;;;;17.23;46.79;100002.84;5090137;28;45389;-84
2022/04/06 09:53:52;;;;;;;;;4.00;3.00;;;;;17.27;46.80;100004.53;5078188;27;44803;-84
2022/04/06 09:56:18;;;;;;;;;4.00;3.00;;;;;17.12;46.30;99995.94;5094324;27;45138;-84
2022/04/06 09:58:51;;;;;;;;;4.67;4.00;;;;;17.09;46.33;99979.03;5111089;27;46008;-84
2022/04/06 10:01:56;;;;;;;;;4.00;4.00;;;;;17.27;46.17;100017.97;5114737;27;45333;-85
2022/04/06 10:04:29;;;;;;;;;4.00;2.67;;;;;16.98;46.45;99996.28;5088058;27;44770;-85
2022/04/06 10:06:56;;;;;;;;;3.00;3.00;;;;;17.03;46.94;100014.09;5092714;27;46910;-83
2022/04/06 10:09:24;;;;;;;;;2.33;2.33;;;;;17.23;46.92;100006.44;5109902;27;45423;-83
2022/04/06 10:11:51;;;;;;;;;3.00;3.00;;;;;17.29;46.83;100003.59;5089549;27;44987;-82
2022/04/06 10:17:39;;;;;;;;;3.67;3.67;;;;;17.26;46.85;99995.59;5091685;27;45517;-84
2022/04/06 10:20:09;;;;;;;;;2.67;2.00;;;;;17.33;46.50;99997.22;5107801;27;45462;-84
2022/04/06 10:22:58;;;;;;;;;2.00;2.00;;;;;17.42;45.81;99984.47;5103844;27;45520;-84
2022/04/06 10:25:46;;;;;;;;;3.00;3.00;;;;;17.48;46.16;99979.81;5089859;28;45455;-83
2022/04/06 10:28:16;;;;;;;;;2.00;2.00;;;;;17.46;45.95;99978.97;5077844;27;47955;-83
2022/04/06 10:34:32;;;;;;;;;2.00;2.00;;;;;17.63;45.60;99981.19;5051140;28;44988;-85
2022/04/06 10:37:07;;;;;;;;;5.00;3.00;;;;;17.62;45.44;99976.75;5067354;28;45427;-84
2022/04/06 10:39:59;;;;;;;;;3.67;3.67;;;;;17.46;45.82;99970.91;5107693;27;46446;-84
2022/04/06 10:42:37;;;;;;;;;4.33;3.00;;;;;17.39;45.82;99934.34;5111015;27;45736;-84
2022/04/06 10:45:08;;;;;;;;;2.00;2.00;;;;;17.43;46.29;99949.50;5093358;27;44882;-83
2022/04/06 10:47:34;;;;;;;;;3.00;2.00;;;;;17.38;46.19;99963.03;5094286;27;45602;-83
2022/04/06 10:50:11;;;;;;;;;3.00;3.00;;;;;17.49;46.18;99952.03;5098987;27;47351;-83
2022/04/06 10:52:40;;;;;;;;;2.00;2.00;;;;;17.20;46.08;99956.31;5117055;27;45533;-83
2022/04/06 10:55:11;;;;;;;;;4.67;4.00;;;;;17.07;46.27;99925.34;5098156;27;44792;-83
2022/04/06 10:57:57;;;;;;;;;4.00;4.00;;;;;17.19;46.65;99949.22;5112997;27;45530;-83
2022/04/06 11:00:24;;;;;;;;;4.00;4.00;;;;;17.02;46.76;99934.44;5115288;27;45478;-84
2022/04/06 11:02:52;;;;;;;;;5.67;5.67;;;;;17.14;46.97;99915.31;5117272;27;44719;-83
2022/04/06 11:05:45;;;;;;;;;4.00;3.67;;;;;17.41;46.56;99935.22;5086933;27;44827;-82
2022/04/06 11:11:44;;;;;;;;;3.67;3.67;;;;;17.44;46.54;99928.88;5096815;28;45155;-83
2022/04/06 11:15:02;;;;;;;;;5.00;4.00;;;;;17.59;46.71;99923.03;5098673;27;45274;-83
2022/04/06 11:17:41;;;;;;;;;5.00;4.33;;;;;17.54;46.96;99903.50;5094581;28;45684;-83
2022/04/06 11:20:21;;;;;;;;;5.67;5.67;;;;;17.57;46.52;99911.44;5088544;28;44950;-82
2022/04/06 11:22:46;;;;;;;;;4.00;4.00;;;;;17.24;47.15;99911.47;5094859;28;47271;-83
2022/04/06 11:25:16;;;;;;;;;7.00;5.00;;;;;17.07;47.72;99860.00;5092260;28;45472;-83
2022/04/06 11:31:04;;;;;;;;;4.33;4.33;;;;;17.03;47.36;99852.91;5083372;28;44802;-84
2022/04/06 11:33:44;;;;;;;;;5.00;5.00;;;;;17.59;47.08;99880.03;5070083;28;47220;-84
2022/04/06 11:36:23;;;;;;;;;5.00;5.00;;;;;17.74;46.56;99879.59;5089466;28;45906;-83
2022/04/06 11:38:53;;;;;;;;;2.33;2.33;;;;;17.45;47.04;99840.13;5083162;27;45578;-82
2022/04/06 11:41:19;;;;;;;;;3.33;3.33;;;;;17.65;47.07;99847.59;5092460;28;45496;-83
2022/04/06 11:43:46;;;;;;;;;5.00;5.00;;;;;17.75;46.95;99841.03;5092383;28;48157;-83
2022/04/06 11:46:12;;;;;;;;;5.67;4.67;;;;;17.76;46.71;99812.31;5093936;28;45443;-84
2022/04/06 11:48:45;;;;;;;;;4.00;4.00;;;;;17.71;46.44;99800.81;5093869;27;44733;-84
2022/04/06 11:51:12;;;;;;;;;4.33;4.33;;;;;17.82;46.82;99816.66;5087003;28;45393;-83
2022/04/06 11:53:38;;;;;;;;;5.00;5.00;;;;;17.91;46.64;99840.59;5090754;28;46884;-83
2022/04/06 11:56:04;;;;;;;;;5.33;5.33;;;;;18.03;45.76;99837.50;5091838;28;45333;-83
2022/04/06 11:58:43;;;;;;;;;5.33;4.67;;;;;18.15;45.72;99815.59;5090441;27;45485;-82
2022/04/06 12:01:11;;;;;;;;;4.00;4.00;;;;;18.39;46.14;99831.91;5106996;27;45365;-83
2022/04/06 12:03:40;;;;;;;;;7.33;6.00;;;;;18.55;45.38;99787.38;5090559;28;47117;-84
2022/04/06 12:06:09;;;;;;;;;4.00;4.00;;;;;18.99;44.92;99824.53;5092032;28;45228;-86
2022/04/06 12:08:39;;;;;;;;;3.67;3.67;;;;;19.26;44.81;99817.25;5091767;28;45841;-84
2022/04/06 12:11:11;;;;;;;;;3.00;3.00;;;;;19.23;43.53;99795.81;5094592;27;45826;-84
2022/04/06 12:13:39;;;;;;;;;7.00;4.00;;;;;19.35;43.84;99826.81;5090075;28;47554;-83
2022/04/06 12:16:07;;;;;;;;;4.33;4.33;;;;;19.38;43.05;99810.53;5092030;28;45463;-84
2022/04/06 12:18:37;;;;;;;;;5.67;5.67;;;;;19.22;42.26;99794.03;5090768;28;45358;-84